Essex, IL (60935)

2:47 AM CST on February 08, 2016 (GMT -0600)
Union Hill | | Change Station
CLOSE
Current Station
Personal Weather Station
Location: Union Hill, IL
Elevation: 623 ft
Nearby Weather Stations

Elev 623 ft 41.11 °N, 88.15 °W | Updated 1 minute ago

Partly Cloudy
Partly Cloudy
31.3 °F
Feels Like 31 °F
N
2.0
Wind Variable Wind from WSW
Gusts 11.0 mph

Today
High -- | Low -- °F
--% Chance of Precip.
Yesterday
High -- | Low -- °F
Precip. -- in
Pressure 29.68 in
Visibility 10.0 miles
Clouds Scattered Clouds 4600 ft
Windchill 31 °F
Dew Point 29 °F
Humidity 90%
Rainfall 0.00 in
Snow Depth Not available.
6:56 AM 5:17 PM
Waning Crescent, 0% visible
METAR KIKK 080835Z AUTO 26009KT 10SM SCT046 00/M02 A2968 RMK AO2 T00011023
Pressure 29.68 in
Visibility 10.0 miles
Clouds Scattered Clouds 4600 ft
Windchill 31 °F
Dew Point 29 °F
Humidity 90%
Rainfall 0.00 in
Snow Depth Not available.
6:56 AM 5:17 PM
Waning Crescent, 0% visible
METAR KIKK 080835Z AUTO 26009KT 10SM SCT046 00/M02 A2968 RMK AO2 T00011023

10-Day Weather Forecast

Almanac

Astronomy

Feb. 08, 2016 Rise Set
Actual Time
Civil Twilight
Nautical Twilight
Astronomical Twilight
Moon
Length of Visible Light
Length of Day
Tomorrow will be .
, % of the Moon is Illuminated

Today's Extremes

State Highs State Lows

Community

WunderPhotos

Upload Photos

1,891,412 photos uploaded!

WunderBlog® & News

Nearby

Air Quality

  Air Quality AQ Index Pollutant
Not available.

Snow Depth

Station Depth Elevation

Earthquake Activity

City Distance Mag. Time & Date
Minimum magnitude displayed is 2.5.

Coastal Water Temperatures

Place Temperature

Stations

Nearby Weather Stations

Station Location Temp. Windchill Dew Point Humidity Wind Precip. Elev Updated Type
                   

Watches & Warnings

There are currently no watches in effect.